Time;durP1;ratioP1;P1;durP2;ratioP2;P2;SDS_P1;SDS_P2;PMS_P1;PMS_P2;Temp;Humidity;BMP_temperature;BMP_pressure;BME280_temperature;BME280_humidity;BME280_pressure;Samples;Min_cycle;Max_cycle;Signal;HPM_P1;HPM_P2
2023/04/02 00:00:27;;;;;;;1.75;0.50;;;12.20;72.30;;;;;;2611446;52;21559;-71
2023/04/02 00:03:20;;;;;;;2.33;0.70;;;12.10;71.80;;;;;;2611549;52;21012;-72
2023/04/02 00:05:49;;;;;;;1.35;0.55;;;12.20;71.90;;;;;;2611543;52;20934;-72
2023/04/02 00:08:26;;;;;;;2.92;0.70;;;12.20;72.40;;;;;;2611501;52;21049;-69
2023/04/02 00:11:02;;;;;;;1.37;0.60;;;12.20;72.20;;;;;;2360704;54;21068;-71
2023/04/02 00:13:41;;;;;;;2.45;0.50;;;12.20;72.20;;;;;;2359929;54;21029;-70
2023/04/02 00:16:10;;;;;;;1.25;0.60;;;12.20;72.40;;;;;;2606763;52;21570;-70
2023/04/02 00:18:43;;;;;;;3.20;0.57;;;12.20;72.40;;;;;;2587798;52;20917;-69
2023/04/02 00:21:13;;;;;;;2.50;0.70;;;12.30;72.50;;;;;;2360146;54;21946;-72
2023/04/02 00:23:44;;;;;;;1.67;0.60;;;12.20;72.40;;;;;;2611994;52;20989;-71
2023/04/02 00:26:33;;;;;;;2.53;0.60;;;12.30;72.50;;;;;;2611350;52;21279;-70
2023/04/02 00:29:02;;;;;;;0.85;0.43;;;12.30;72.20;;;;;;2602565;52;21142;-70
2023/04/02 00:31:31;;;;;;;2.17;0.73;;;12.30;72.40;;;;;;2345278;53;21931;-69
2023/04/02 00:33:59;;;;;;;1.58;0.50;;;12.30;72.50;;;;;;2359995;53;21005;-70
2023/04/02 00:36:33;;;;;;;1.12;0.50;;;12.30;72.40;;;;;;2611821;52;20950;-70
2023/04/02 00:39:00;;;;;;;2.50;0.80;;;12.30;72.30;;;;;;2610886;52;20985;-69
2023/04/02 00:41:28;;;;;;;2.00;0.50;;;12.30;72.40;;;;;;2360352;53;21943;-69
2023/04/02 00:43:57;;;;;;;1.67;0.60;;;12.30;72.50;;;;;;2359295;53;20926;-70
2023/04/02 00:46:28;;;;;;;1.73;0.60;;;12.30;72.50;;;;;;2611318;52;21529;-69
2023/04/02 00:49:04;;;;;;;1.40;0.65;;;12.40;72.50;;;;;;2596511;52;21045;-70
2023/04/02 00:51:34;;;;;;;1.70;0.60;;;12.40;72.40;;;;;;2590770;52;21102;-72
2023/04/02 00:54:05;;;;;;;2.12;0.80;;;12.40;72.50;;;;;;2339377;53;21121;-71
2023/04/02 00:56:36;;;;;;;3.08;0.55;;;12.40;72.40;;;;;;2360445;54;21060;-70
2023/04/02 00:59:02;;;;;;;3.72;0.70;;;12.40;72.40;;;;;;2610953;52;20942;-71
2023/04/02 01:02:04;;;;;;;2.67;0.60;;;12.40;72.50;;;;;;2360023;53;20914;-71
2023/04/02 01:04:35;;;;;;;;;;;12.50;72.60;;;;;;2615754;52;20934;-72
2023/04/02 01:07:05;;;;;;;1.35;0.52;;;12.50;71.50;;;;;;2359946;54;20098;-70
2023/04/02 01:10:02;;;;;;;1.30;0.40;;;12.50;72.30;;;;;;2360326;54;20978;-70
2023/04/02 01:12:44;;;;;;;1.67;0.40;;;12.50;71.80;;;;;;2360594;54;21994;-68
2023/04/02 01:15:20;;;;;;;1.73;0.60;;;12.50;72.20;;;;;;2359867;54;21021;-71
2023/04/02 01:21:24;;;;;;;2.53;0.50;;;12.50;72.40;;;;;;2360709;54;20922;-69
2023/04/02 01:24:03;;;;;;;1.62;0.47;;;12.50;71.30;;;;;;2360964;54;21027;-70
2023/04/02 01:28:28;;;;;;;1.33;0.50;;;12.50;72.20;;;;;;2561144;52;21076;-72
2023/04/02 01:30:57;;;;;;;1.42;0.50;;;12.50;71.20;;;;;;2611356;52;20954;-69
2023/04/02 01:33:28;;;;;;;1.40;0.50;;;12.60;72.20;;;;;;2360296;54;20926;-73
2023/04/02 01:36:06;;;;;;;2.92;0.57;;;12.60;72.30;;;;;;2360261;53;20985;-70
2023/04/02 01:38:37;;;;;;;0.95;0.50;;;12.60;72.20;;;;;;2360273;54;20926;-69
2023/04/02 01:41:22;;;;;;;1.52;0.50;;;12.50;72.20;;;;;;2360129;53;22163;-70
2023/04/02 01:44:01;;;;;;;1.60;0.52;;;12.60;72.00;;;;;;2566037;52;21045;-70
2023/04/02 01:46:32;;;;;;;1.58;0.60;;;12.60;72.20;;;;;;2355900;54;20898;-71
2023/04/02 01:49:03;;;;;;;0.95;0.40;;;12.60;72.10;;;;;;2580487;52;21850;-70
2023/04/02 01:51:32;;;;;;;1.33;0.57;;;12.60;72.20;;;;;;2447214;52;3263799;-72
2023/04/02 01:54:00;;;;;;;1.55;0.50;;;12.60;72.30;;;;;;2576256;52;21930;-72
2023/04/02 01:56:27;;;;;;;1.33;0.60;;;12.60;72.20;;;;;;2582905;52;20921;-69
2023/04/02 01:58:54;;;;;;;1.05;0.40;;;12.50;72.10;;;;;;2353739;54;20954;-71
2023/04/02 02:01:23;;;;;;;1.23;0.50;;;12.60;72.90;;;;;;2610254;52;20946;-69
2023/04/02 02:03:50;;;;;;;1.08;0.50;;;12.60;72.10;;;;;;2576404;53;20985;-69
2023/04/02 02:06:23;;;;;;;1.35;0.50;;;12.60;72.20;;;;;;2331003;53;20952;-73
2023/04/02 02:09:03;;;;;;;2.20;0.50;;;12.60;72.10;;;;;;2543978;53;20960;-71
2023/04/02 02:11:31;;;;;;;1.45;0.57;;;12.60;72.00;;;;;;2336595;54;21028;-72
2023/04/02 02:14:04;;;;;;;1.62;0.60;;;12.60;72.10;;;;;;2330888;55;20985;-72
2023/04/02 02:16:30;;;;;;;2.45;0.98;;;12.60;72.20;;;;;;2338193;54;20926;-71
2023/04/02 02:19:00;;;;;;;3.90;0.90;;;12.60;72.20;;;;;;2581083;52;20982;-72
2023/04/02 02:21:43;;;;;;;2.08;0.85;;;12.60;72.00;;;;;;2580436;52;20962;-71
2023/04/02 02:24:23;;;;;;;3.15;1.10;;;12.60;71.70;;;;;;2609705;52;20930;-70
2023/04/02 02:28:26;;;;;;;3.42;1.15;;;12.60;71.90;;;;;;2353116;53;21071;-71
2023/04/02 02:31:04;;;;;;;2.37;0.90;;;12.60;71.00;;;;;;2576085;53;21036;-70
2023/04/02 02:33:51;;;;;;;2.25;0.77;;;12.60;71.90;;;;;;2331543;53;21401;-71
2023/04/02 02:37:39;;;;;;;1.95;0.73;;;12.60;71.90;;;;;;2575545;53;20956;-71
2023/04/02 02:40:12;;;;;;;2.12;0.60;;;12.60;71.20;;;;;;2575772;53;21051;-70
2023/04/02 02:42:39;;;;;;;2.17;0.50;;;12.60;71.90;;;;;;2331921;53;21478;-73
2023/04/02 02:45:10;;;;;;;2.53;0.50;;;12.60;71.90;;;;;;2331129;53;21473;-70
2023/04/02 02:47:36;;;;;;;0.70;0.40;;;12.60;71.90;;;;;;2331905;53;20960;-70
2023/04/02 02:50:07;;;;;;;2.35;0.60;;;12.60;71.90;;;;;;2330727;53;20952;-72
2023/04/02 02:52:37;;;;;;;1.25;0.50;;;12.50;71.80;;;;;;2332150;53;21532;-70
2023/04/02 02:55:17;;;;;;;1.67;0.52;;;12.60;71.90;;;;;;2331888;53;20964;-72
2023/04/02 02:57:49;;;;;;;1.80;0.70;;;12.50;71.70;;;;;;2332576;53;20929;-68
2023/04/02 03:00:18;;;;;;;1.85;0.50;;;12.50;71.80;;;;;;2332144;53;20976;-71
2023/04/02 03:02:53;;;;;;;2.60;0.70;;;12.50;71.90;;;;;;2332787;53;20972;-70
2023/04/02 03:05:20;;;;;;;2.50;0.50;;;12.50;71.60;;;;;;2342030;54;20977;-72
2023/04/02 03:07:51;;;;;;;0.93;0.45;;;12.50;71.90;;;;;;2611766;52;20939;-69
2023/04/02 03:10:21;;;;;;;1.75;0.55;;;12.50;71.90;;;;;;2359780;53;22036;-72
2023/04/02 03:14:17;;;;;;;1.70;0.50;;;12.50;71.80;;;;;;2610870;52;21101;-70
2023/04/02 03:16:46;;;;;;;1.30;0.47;;;12.50;70.80;;;;;;2335974;53;21127;-71
2023/04/02 03:19:26;;;;;;;1.95;0.60;;;12.50;71.80;;;;;;2333579;53;20975;-71
2023/04/02 03:21:56;;;;;;;1.98;0.60;;;12.50;71.50;;;;;;2570730;53;20944;-72
2023/04/02 03:24:40;;;;;;;2.17;0.57;;;12.50;71.80;;;;;;2577598;53;20973;-72
2023/04/02 03:27:21;;;;;;;1.70;0.70;;;12.50;71.50;;;;;;2335871;54;20964;-72
2023/04/02 03:30:20;;;;;;;2.35;0.73;;;12.50;71.50;;;;;;2330279;55;21385;-73
2023/04/02 03:32:46;;;;;;;2.33;0.65;;;12.50;71.50;;;;;;2570210;52;20998;-68
2023/04/02 03:35:37;;;;;;;2.72;0.60;;;12.50;72.30;;;;;;2352144;53;21077;-71
2023/04/02 03:38:26;;;;;;;2.35;0.60;;;12.50;71.60;;;;;;2359654;53;21497;-72
2023/04/02 03:41:06;;;;;;;2.28;0.70;;;12.50;71.90;;;;;;2611601;52;20910;-71
2023/04/02 03:43:36;;;;;;;1.70;0.50;;;12.50;71.80;;;;;;2582756;52;20964;-71
2023/04/02 03:46:49;;;;;;;1.33;0.60;;;12.50;72.10;;;;;;2359436;54;20933;-70
2023/04/02 03:49:35;;;;;;;1.35;0.50;;;12.50;71.90;;;;;;2341372;54;21409;-70
2023/04/02 03:52:10;;;;;;;2.47;0.70;;;12.50;71.80;;;;;;2344490;54;20985;-72
2023/04/02 03:54:40;;;;;;;3.33;0.90;;;12.50;71.90;;;;;;2357958;53;21110;-71
2023/04/02 03:57:20;;;;;;;2.58;0.77;;;12.50;72.10;;;;;;2358981;54;20922;-70
2023/04/02 03:59:49;;;;;;;1.65;0.62;;;12.50;72.00;;;;;;2359078;54;20954;-69
2023/04/02 04:02:39;;;;;;;2.25;0.90;;;12.50;72.10;;;;;;2342481;53;20967;-71
2023/04/02 04:05:06;;;;;;;2.85;0.80;;;12.50;71.90;;;;;;2359850;53;21031;-72
2023/04/02 04:07:35;;;;;;;2.08;0.88;;;12.50;72.10;;;;;;2360053;54;20922;-72
2023/04/02 04:10:02;;;;;;;3.03;1.00;;;12.50;72.10;;;;;;2610563;52;21029;-71
2023/04/02 04:12:38;;;;;;;2.45;1.15;;;12.50;72.10;;;;;;2611677;52;21499;-71
2023/04/02 04:15:16;;;;;;;4.05;1.15;;;12.60;72.10;;;;;;2359297;53;20977;-70
2023/04/02 04:18:02;;;;;;;2.42;1.00;;;12.50;72.00;;;;;;2607606;52;21009;-73
2023/04/02 04:20:57;;;;;;;2.42;0.90;;;12.40;71.90;;;;;;2591452;52;20982;-70
2023/04/02 04:23:48;;;;;;;2.67;1.00;;;12.50;71.90;;;;;;2583823;52;20966;-70
2023/04/02 04:27:02;;;;;;;2.40;0.90;;;12.50;72.00;;;;;;2360247;53;20961;-70
2023/04/02 04:29:48;;;;;;;3.33;1.20;;;12.50;71.40;;;;;;2611824;52;20939;-70
2023/04/02 04:33:49;;;;;;;2.12;0.82;;;12.50;72.00;;;;;;2599127;52;20959;-71
2023/04/02 04:36:27;;;;;;;2.20;0.80;;;12.50;71.20;;;;;;2359011;53;20969;-71
2023/04/02 04:38:58;;;;;;;2.10;0.75;;;12.50;72.00;;;;;;2361250;53;22115;-72
2023/04/02 04:41:32;;;;;;;2.10;1.00;;;12.40;72.00;;;;;;2611366;52;21120;-71
2023/04/02 04:50:52;;;;;;;2.10;0.82;;;12.50;72.00;;;;;;2610824;52;20969;-72
2023/04/02 04:53:23;;;;;;;1.95;0.70;;;12.50;71.20;;;;;;2360517;53;21525;-70
2023/04/02 04:55:52;;;;;;;1.27;0.60;;;12.50;72.00;;;;;;2361014;53;20982;-70
2023/04/02 04:58:35;;;;;;;1.83;0.85;;;12.50;72.20;;;;;;2611049;52;21724;-72
2023/04/02 05:01:11;;;;;;;1.83;0.75;;;12.50;72.10;;;;;;2362805;53;20934;-70
2023/04/02 05:03:47;;;;;;;1.85;0.73;;;12.40;72.10;;;;;;2610849;52;20946;-70
2023/04/02 05:07:45;;;;;;;6.37;0.90;;;12.40;72.20;;;;;;2360035;54;22025;-72
2023/04/02 05:11:40;;;;;;;1.83;0.60;;;12.40;72.00;;;;;;2359912;53;20954;-70
2023/04/02 05:14:11;;;;;;;1.42;0.60;;;12.40;71.30;;;;;;2350392;53;21351;-71
2023/04/02 05:16:55;;;;;;;1.87;0.70;;;12.40;72.10;;;;;;2576118;53;21099;-72
2023/04/02 05:19:26;;;;;;;;;;;12.40;72.20;;;;;;2356414;54;20979;-70
2023/04/02 05:24:50;;;;;;;1.40;0.47;;;12.50;71.30;;;;;;2348108;53;20069;-69
2023/04/02 05:27:35;;;;;;;1.50;0.60;;;12.50;71.80;;;;;;2611303;52;21484;-72
2023/04/02 05:33:36;;;;;;;1.70;0.60;;;12.40;71.80;;;;;;2360806;53;21918;-72
2023/04/02 05:36:07;;;;;;;1.25;0.60;;;12.50;72.20;;;;;;2366610;53;20946;-70
2023/04/02 05:38:37;;;;;;;1.65;0.70;;;12.40;72.10;;;;;;2360965;54;21072;-70
2023/04/02 05:41:25;;;;;;;1.37;0.55;;;12.40;72.10;;;;;;2359871;53;20986;-70
2023/04/02 05:44:07;;;;;;;1.62;0.60;;;12.40;72.30;;;;;;2612329;52;20914;-71
2023/04/02 05:46:55;;;;;;;1.23;0.50;;;12.40;71.90;;;;;;2359595;53;22059;-72
2023/04/02 05:49:41;;;;;;;2.17;0.50;;;12.40;72.30;;;;;;2347999;53;21103;-70
2023/04/02 05:52:12;;;;;;;1.60;0.52;;;12.40;72.00;;;;;;2610190;52;21009;-72
2023/04/02 05:57:39;;;;;;;2.08;0.60;;;12.40;72.20;;;;;;2612431;52;21010;-73
2023/04/02 06:00:21;;;;;;;1.25;0.40;;;12.40;72.20;;;;;;2359887;54;20974;-70
2023/04/02 06:02:58;;;;;;;1.70;0.60;;;12.50;72.20;;;;;;2361556;53;20989;-70
2023/04/02 06:05:39;;;;;;;1.00;0.45;;;12.40;72.20;;;;;;2360743;54;21062;-72
2023/04/02 06:08:12;;;;;;;1.50;0.60;;;12.40;72.10;;;;;;2360249;53;22047;-72
2023/04/02 06:10:53;;;;;;;0.95;0.50;;;12.40;72.20;;;;;;2611471;52;20958;-72
2023/04/02 06:13:19;;;;;;;2.10;0.50;;;12.40;72.10;;;;;;2607682;52;20945;-71
2023/04/02 06:15:46;;;;;;;1.20;0.45;;;12.40;72.40;;;;;;2360465;54;20966;-70
2023/04/02 06:18:28;;;;;;;1.75;0.57;;;12.40;72.40;;;;;;2359412;53;21440;-70
2023/04/02 06:20:55;;;;;;;1.20;0.50;;;12.40;72.10;;;;;;2584501;52;21002;-72
2023/04/02 06:23:45;;;;;;;1.25;0.40;;;12.40;72.30;;;;;;2358794;54;21266;-70
2023/04/02 06:27:26;;;;;;;1.73;0.60;;;12.50;72.40;;;;;;2611299;52;20990;-72
2023/04/02 06:29:54;;;;;;;1.33;0.50;;;12.50;72.20;;;;;;2361862;53;21005;-72
2023/04/02 06:32:22;;;;;;;1.55;0.52;;;12.50;72.50;;;;;;2587979;52;20926;-71
2023/04/02 06:34:49;;;;;;;1.12;0.40;;;12.50;72.60;;;;;;2360609;54;21385;-70
2023/04/02 06:37:41;;;;;;;1.33;0.40;;;12.50;72.60;;;;;;2610696;52;21438;-70
2023/04/02 06:40:39;;;;;;;1.08;0.47;;;12.50;72.60;;;;;;2360276;53;21021;-72
2023/04/02 06:44:30;;;;;;;1.65;0.57;;;12.50;72.30;;;;;;2360544;53;20945;-70
2023/04/02 06:47:02;;;;;;;1.12;0.47;;;12.60;71.70;;;;;;2599934;52;20987;-70
2023/04/02 06:50:17;;;;;;;1.20;0.37;;;12.60;72.60;;;;;;2596184;52;20966;-69
2023/04/02 06:52:46;;;;;;;1.75;0.60;;;12.70;72.00;;;;;;2360331;54;20942;-70
2023/04/02 06:55:33;;;;;;;1.90;0.70;;;12.60;72.70;;;;;;2360290;54;20922;-70
2023/04/02 06:58:00;;;;;;;1.60;0.55;;;12.60;72.40;;;;;;2611391;52;20973;-70
2023/04/02 07:00:46;;;;;;;1.67;0.60;;;12.70;72.80;;;;;;2593965;52;21079;-71
2023/04/02 07:03:26;;;;;;;1.48;0.65;;;12.70;72.40;;;;;;2346609;54;21060;-70
2023/04/02 07:05:52;;;;;;;1.70;0.60;;;12.70;72.80;;;;;;2584798;52;20948;-70
2023/04/02 07:08:18;;;;;;;1.73;0.60;;;12.70;73.00;;;;;;2339834;53;20988;-70
2023/04/02 07:10:45;;;;;;;2.50;0.90;;;12.70;73.10;;;;;;2360971;54;21875;-70
2023/04/02 07:13:19;;;;;;;1.90;0.70;;;12.70;73.10;;;;;;2611204;52;21073;-71
2023/04/02 07:15:46;;;;;;;2.00;0.60;;;12.80;73.10;;;;;;2360795;54;20930;-71
2023/04/02 07:18:25;;;;;;;1.80;0.60;;;12.80;73.30;;;;;;2611583;52;20903;-70
2023/04/02 07:20:52;;;;;;;1.37;0.50;;;12.80;73.20;;;;;;2612206;52;20934;-70
2023/04/02 07:23:20;;;;;;;1.98;0.70;;;12.90;73.50;;;;;;2359989;53;20993;-70
2023/04/02 07:25:50;;;;;;;1.83;0.65;;;12.90;73.40;;;;;;2603865;52;20959;-70
2023/04/02 07:28:16;;;;;;;1.62;0.50;;;12.90;73.20;;;;;;2344497;54;21896;-72
2023/04/02 07:30:45;;;;;;;1.12;0.52;;;13.00;73.30;;;;;;2360846;54;20977;-70
2023/04/02 07:33:16;;;;;;;3.00;0.60;;;13.00;73.20;;;;;;2611751;52;20985;-70
2023/04/02 07:35:43;;;;;;;1.42;0.60;;;13.00;73.20;;;;;;2612341;52;21045;-70
2023/04/02 07:38:10;;;;;;;1.27;0.50;;;13.10;73.20;;;;;;2359063;54;20926;-70
2023/04/02 07:40:36;;;;;;;2.12;0.70;;;13.10;73.20;;;;;;2612284;52;21486;-70
2023/04/02 07:43:03;;;;;;;1.65;0.52;;;13.10;73.30;;;;;;2611207;52;20926;-71
2023/04/02 07:45:30;;;;;;;1.10;0.40;;;13.20;73.40;;;;;;2611956;52;21017;-71
2023/04/02 07:48:12;;;;;;;1.02;0.47;;;13.20;73.40;;;;;;2610690;52;22022;-71
2023/04/02 07:50:41;;;;;;;2.10;0.50;;;13.30;73.30;;;;;;2360085;53;20922;-70
2023/04/02 07:53:11;;;;;;;0.93;0.40;;;13.30;73.30;;;;;;2359557;53;21052;-70
2023/04/02 07:55:37;;;;;;;1.35;0.50;;;13.30;73.50;;;;;;2597260;52;20890;-70
2023/04/02 07:58:17;;;;;;;1.27;0.52;;;13.40;73.60;;;;;;2577151;52;21052;-70
2023/04/02 08:00:43;;;;;;;1.73;0.50;;;13.40;73.30;;;;;;2325561;53;20996;-70
2023/04/02 08:03:09;;;;;;;1.98;0.50;;;13.40;73.60;;;;;;2577679;53;20937;-71
2023/04/02 08:05:36;;;;;;;1.20;0.60;;;13.50;73.80;;;;;;2579180;53;20939;-70
2023/04/02 08:08:05;;;;;;;2.08;0.80;;;13.50;73.80;;;;;;2331960;53;21119;-71
2023/04/02 08:10:33;;;;;;;2.12;0.70;;;13.60;73.60;;;;;;2569177;52;21911;-70
2023/04/02 08:12:59;;;;;;;1.35;0.47;;;13.60;73.70;;;;;;2568754;52;22006;-71
2023/04/02 08:15:29;;;;;;;1.20;0.50;;;13.70;73.80;;;;;;2316726;54;21921;-71
2023/04/02 08:17:58;;;;;;;1.17;0.50;;;13.70;73.70;;;;;;2577714;52;21087;-72
2023/04/02 08:20:24;;;;;;;1.27;0.50;;;13.80;73.60;;;;;;2565836;52;21175;-70
2023/04/02 08:22:51;;;;;;;1.65;0.60;;;13.80;73.70;;;;;;2576637;52;22177;-72
2023/04/02 08:25:17;;;;;;;1.98;0.62;;;13.80;73.70;;;;;;2599096;52;21001;-71
2023/04/02 08:27:46;;;;;;;1.55;0.52;;;13.90;73.60;;;;;;2611796;52;20970;-70
2023/04/02 08:30:12;;;;;;;0.88;0.43;;;14.00;73.70;;;;;;2359893;53;20954;-70
2023/04/02 08:32:42;;;;;;;1.58;0.50;;;13.90;73.60;;;;;;2611976;52;20977;-71
2023/04/02 08:35:09;;;;;;;1.42;0.40;;;14.00;73.50;;;;;;2611442;52;21156;-71
2023/04/02 08:37:36;;;;;;;0.77;0.37;;;14.10;73.70;;;;;;2332534;53;21964;-71
2023/04/02 08:40:03;;;;;;;1.05;0.40;;;14.10;73.70;;;;;;2577076;53;20941;-70
2023/04/02 08:46:18;;;;;;;0.95;0.35;;;14.10;73.70;;;;;;2577673;53;20960;-70
2023/04/02 08:48:48;;;;;;;1.25;0.40;;;14.20;73.10;;;;;;2577686;53;20996;-70
2023/04/02 08:51:28;;;;;;;1.10;0.40;;;14.30;73.50;;;;;;2572201;53;20932;-70
2023/04/02 08:53:59;;;;;;;2.35;0.57;;;14.30;73.10;;;;;;2332802;53;20996;-72
2023/04/02 08:56:29;;;;;;;1.55;0.50;;;14.40;73.50;;;;;;2332697;53;20940;-69
2023/04/02 08:58:58;;;;;;;0.80;0.43;;;14.40;73.40;;;;;;2578917;53;20965;-71
2023/04/02 09:01:47;;;;;;;1.23;0.52;;;14.40;73.40;;;;;;2571876;53;21407;-71
2023/04/02 09:04:21;;;;;;;0.98;0.40;;;14.50;72.90;;;;;;2332981;53;22030;-69
2023/04/02 09:06:47;;;;;;;1.08;0.40;;;14.50;73.30;;;;;;2577838;53;22084;-70
2023/04/02 09:09:16;;;;;;;2.03;0.70;;;14.50;73.60;;;;;;2577074;53;20959;-69
2023/04/02 09:12:03;;;;;;;2.20;0.70;;;14.60;73.80;;;;;;2332988;53;20966;-71
2023/04/02 09:16:24;;;;;;;1.35;0.50;;;14.60;73.50;;;;;;2332277;53;20976;-70
2023/04/02 09:18:51;;;;;;;1.08;0.43;;;14.70;72.50;;;;;;2577372;53;21083;-71
2023/04/02 09:21:46;;;;;;;1.05;0.40;;;14.70;73.60;;;;;;2332138;53;21404;-71
2023/04/02 09:24:12;;;;;;;1.20;0.40;;;14.80;72.90;;;;;;2573887;53;21043;-71
2023/04/02 09:26:39;;;;;;;1.77;0.60;;;14.80;73.50;;;;;;2567413;53;20988;-70
2023/04/02 09:29:54;;;;;;;1.27;0.55;;;14.90;73.30;;;;;;2576601;53;21540;-70
2023/04/02 09:34:25;;;;;;;0.80;0.40;;;14.90;71.90;;;;;;2577253;52;21351;-71
2023/04/02 09:36:51;;;;;;;0.62;0.37;;;15.00;71.90;;;;;;2336163;53;20996;-71
2023/04/02 09:39:25;;;;;;;0.70;0.30;;;15.00;73.10;;;;;;2344162;53;21002;-70
2023/04/02 09:41:52;;;;;;;0.93;0.30;;;15.10;73.30;;;;;;2360762;54;21849;-70
2023/04/02 09:44:25;;;;;;;1.00;0.40;;;15.10;73.30;;;;;;2360350;54;21971;-70
2023/04/02 09:47:02;;;;;;;1.35;0.32;;;15.10;73.90;;;;;;2360376;54;20909;-70
2023/04/02 09:49:30;;;;;;;0.85;0.30;;;15.20;73.10;;;;;;2361087;54;21524;-70
2023/04/02 09:52:56;;;;;;;1.92;0.50;;;15.20;73.30;;;;;;2602393;52;21028;-70
2023/04/02 09:55:26;;;;;;;0.60;0.30;;;15.30;72.00;;;;;;2606871;52;21009;-70
2023/04/02 09:58:15;;;;;;;1.02;0.40;;;15.30;73.30;;;;;;2603903;52;21420;-71
2023/04/02 10:00:51;;;;;;;1.30;0.50;;;15.40;72.60;;;;;;2563455;53;20943;-71
2023/04/02 10:03:23;;;;;;;1.02;0.50;;;15.40;72.90;;;;;;2336151;53;21011;-70
2023/04/02 10:06:08;;;;;;;0.80;0.30;;;15.50;73.50;;;;;;2588970;52;21232;-70
2023/04/02 10:08:35;;;;;;;1.37;0.65;;;15.50;73.00;;;;;;2361060;53;20962;-70
2023/04/02 10:11:02;;;;;;;1.10;0.40;;;15.40;73.50;;;;;;2612244;52;20942;-71
2023/04/02 10:13:55;;;;;;;0.70;0.40;;;15.60;73.60;;;;;;2360639;53;21549;-72
2023/04/02 10:16:34;;;;;;;0.60;0.40;;;15.70;72.60;;;;;;2360224;54;20950;-70
2023/04/02 10:19:53;;;;;;;0.80;0.30;;;15.80;73.50;;;;;;2348380;54;20971;-69
2023/04/02 10:22:22;;;;;;;0.73;0.37;;;15.80;73.30;;;;;;2361117;53;20953;-72
2023/04/02 10:24:49;;;;;;;1.95;0.50;;;15.80;73.30;;;;;;2361657;54;20986;-72
2023/04/02 10:27:41;;;;;;;1.30;0.55;;;16.00;73.10;;;;;;2363151;53;20974;-73
2023/04/02 10:31:01;;;;;;;1.55;0.70;;;16.00;72.00;;;;;;2360990;53;20962;-71
2023/04/02 10:33:36;;;;;;;1.77;0.57;;;16.10;71.80;;;;;;2612505;52;21529;-70
2023/04/02 10:36:42;;;;;;;1.17;0.45;;;16.10;73.00;;;;;;2606329;52;20978;-71
2023/04/02 10:41:05;;;;;;;1.12;0.40;;;16.20;72.10;;;;;;2329416;54;21095;-70
2023/04/02 10:50:35;;;;;;;1.48;0.50;;;16.20;72.90;;;;;;2612206;52;20994;-72
2023/04/02 10:53:15;;;;;;;1.80;0.62;;;16.40;72.60;;;;;;2610995;52;21598;-69
2023/04/02 10:55:51;;;;;;;2.28;1.00;;;16.60;72.40;;;;;;2360016;53;20942;-70
2023/04/02 10:58:26;;;;;;;1.62;0.70;;;16.60;72.60;;;;;;2360920;54;21841;-71
2023/04/02 11:00:58;;;;;;;1.20;0.50;;;16.60;72.50;;;;;;2612888;52;21053;-69
2023/04/02 11:03:35;;;;;;;1.15;0.45;;;16.60;72.80;;;;;;2611728;52;20938;-70
2023/04/02 11:06:17;;;;;;;3.97;1.45;;;16.70;72.30;;;;;;2360665;54;22089;-71
2023/04/02 11:08:46;;;;;;;3.60;1.50;;;16.70;72.20;;;;;;2360082;53;21713;-70
2023/04/02 11:11:26;;;;;;;2.30;0.90;;;16.70;72.10;;;;;;2592853;52;21033;-73
2023/04/02 11:14:36;;;;;;;1.95;0.73;;;16.70;71.60;;;;;;2355255;53;21041;-73
2023/04/02 11:17:04;;;;;;;2.85;0.88;;;16.80;70.40;;;;;;2611892;52;20934;-70
2023/04/02 11:19:35;;;;;;;1.62;0.60;;;16.80;72.30;;;;;;2360709;53;20961;-70
2023/04/02 11:22:23;;;;;;;1.50;0.47;;;16.80;72.10;;;;;;2356385;53;21077;-72
2023/04/02 11:24:53;;;;;;;1.90;0.50;;;16.90;71.40;;;;;;2289844;55;20950;-70
2023/04/02 11:27:32;;;;;;;1.08;0.32;;;16.90;72.40;;;;;;2577751;53;20969;-69
2023/04/02 11:30:19;;;;;;;1.15;0.30;;;16.90;71.80;;;;;;2578937;53;21027;-73
2023/04/02 11:32:48;;;;;;;0.85;0.30;;;16.90;71.60;;;;;;2580135;53;20980;-70
2023/04/02 11:38:48;;;;;;;0.43;0.20;;;17.00;72.30;;;;;;2333037;53;20948;-71
2023/04/02 11:41:42;;;;;;;0.90;0.20;;;17.10;70.90;;;;;;2333290;53;21425;-72
2023/04/02 11:44:22;;;;;;;0.80;0.30;;;17.10;71.40;;;;;;2579264;53;21581;-70
2023/04/02 11:46:50;;;;;;;0.45;0.10;;;17.10;71.00;;;;;;2578349;53;21387;-70
2023/04/02 11:49:39;;;;;;;0.35;0.20;;;17.10;71.60;;;;;;2332566;53;21622;-69
2023/04/02 11:52:19;;;;;;;0.75;0.20;;;17.00;70.30;;;;;;2332358;53;21027;-72
2023/04/02 11:54:49;;;;;;;0.60;0.25;;;17.00;70.50;;;;;;2333687;53;21539;-72
2023/04/02 11:57:29;;;;;;;0.55;0.30;;;17.00;71.40;;;;;;2332568;53;20968;-70
2023/04/02 12:00:09;;;;;;;1.48;0.52;;;17.00;71.00;;;;;;2578802;53;20968;-71
2023/04/02 12:03:14;;;;;;;1.62;0.73;;;17.00;71.10;;;;;;2333182;53;21036;-72
2023/04/02 12:05:50;;;;;;;1.52;0.68;;;17.00;70.10;;;;;;2578414;53;21150;-71
2023/04/02 12:09:55;;;;;;;1.73;0.70;;;17.00;70.50;;;;;;2341097;54;20993;-71
2023/04/02 12:12:36;;;;;;;1.80;0.80;;;16.90;70.80;;;;;;2339938;54;20997;-71
2023/04/02 12:15:27;;;;;;;1.27;0.60;;;16.90;70.50;;;;;;2360103;54;21387;-72
2023/04/02 12:18:22;;;;;;;1.48;0.65;;;16.90;71.20;;;;;;2334924;53;21423;-71
2023/04/02 12:20:51;;;;;;;0.57;0.37;;;16.90;71.00;;;;;;2589064;52;20956;-72
2023/04/02 12:23:20;;;;;;;1.05;0.50;;;16.90;71.50;;;;;;2601805;52;21920;-71
2023/04/02 12:25:54;;;;;;;0.80;0.37;;;16.80;71.50;;;;;;2611748;52;20903;-71
2023/04/02 12:28:22;;;;;;;0.68;0.37;;;16.80;71.50;;;;;;2359767;53;21034;-71
2023/04/02 12:30:48;;;;;;;1.23;0.40;;;16.80;72.00;;;;;;2597195;52;20947;-74
2023/04/02 12:33:29;;;;;;;0.82;0.30;;;16.80;72.30;;;;;;2591549;52;21097;-70
2023/04/02 12:35:57;;;;;;;1.25;0.40;;;16.90;72.20;;;;;;2609865;52;22012;-70
2023/04/02 12:38:32;;;;;;;0.50;0.28;;;16.80;73.00;;;;;;2610482;52;20946;-70
2023/04/02 12:41:05;;;;;;;0.70;0.30;;;16.90;72.90;;;;;;2610887;52;21002;-71
2023/04/02 12:43:32;;;;;;;0.20;0.20;;;16.90;72.90;;;;;;2611239;52;21951;-73
2023/04/02 12:46:11;;;;;;;0.30;0.20;;;17.00;73.30;;;;;;2360565;53;22070;-74
2023/04/02 12:48:38;;;;;;;0.75;0.22;;;17.00;73.30;;;;;;2611247;52;21922;-68
2023/04/02 12:51:04;;;;;;;0.15;0.15;;;17.10;73.40;;;;;;2359289;53;21065;-71
2023/04/02 12:53:40;;;;;;;0.20;0.17;;;17.10;73.40;;;;;;2360364;53;20930;-73
2023/04/02 12:56:31;;;;;;;0.22;0.20;;;17.20;72.60;;;;;;2610869;52;20930;-70
2023/04/02 12:59:00;;;;;;;0.20;0.20;;;17.30;72.70;;;;;;2357435;53;20946;-71
2023/04/02 13:01:28;;;;;;;0.45;0.22;;;17.30;73.20;;;;;;2578004;52;20924;-72
2023/04/02 13:04:13;;;;;;;0.37;0.20;;;17.40;73.10;;;;;;2612135;52;20934;-73
2023/04/02 13:06:41;;;;;;;0.40;0.20;;;17.40;72.60;;;;;;2359823;53;21381;-72
2023/04/02 13:09:35;;;;;;;0.43;0.30;;;17.50;73.30;;;;;;2355046;53;20971;-72
2023/04/02 13:12:04;;;;;;;0.93;0.40;;;17.50;71.90;;;;;;2359770;53;21337;-73
2023/04/02 13:14:31;;;;;;;0.40;0.20;;;17.60;73.00;;;;;;2336619;53;20927;-69
2023/04/02 13:17:00;;;;;;;0.30;0.20;;;17.70;73.20;;;;;;2611905;52;22041;-69
2023/04/02 13:19:29;;;;;;;0.60;0.30;;;17.70;72.80;;;;;;2603359;52;21093;-69
2023/04/02 13:21:58;;;;;;;0.70;0.40;;;17.80;72.90;;;;;;2360270;53;20922;-69
2023/04/02 13:24:27;;;;;;;0.77;0.30;;;17.80;72.60;;;;;;2602390;52;20957;-69
2023/04/02 13:26:55;;;;;;;0.28;0.13;;;17.90;72.20;;;;;;2339782;53;21057;-69
2023/04/02 13:29:34;;;;;;;0.88;0.40;;;17.90;72.00;;;;;;2610486;52;20985;-69
2023/04/02 13:32:05;;;;;;;0.30;0.20;;;17.90;71.10;;;;;;2611299;52;20938;-69
2023/04/02 13:34:31;;;;;;;0.55;0.25;;;17.90;71.50;;;;;;2349206;53;20932;-69
2023/04/02 13:37:00;;;;;;;0.62;0.20;;;17.90;71.70;;;;;;2595681;52;20937;-69
2023/04/02 13:39:29;;;;;;;0.40;0.20;;;17.90;71.60;;;;;;2611431;52;20923;-70
2023/04/02 13:42:00;;;;;;;0.95;0.30;;;18.00;71.40;;;;;;2611878;52;20942;-69
2023/04/02 13:44:28;;;;;;;0.55;0.30;;;18.00;71.20;;;;;;2595690;52;20956;-70
2023/04/02 13:46:54;;;;;;;0.50;0.40;;;18.00;71.40;;;;;;2325586;54;20954;-69
2023/04/02 13:49:21;;;;;;;0.55;0.30;;;18.00;71.20;;;;;;2611041;52;20966;-69
2023/04/02 13:52:03;;;;;;;1.05;0.40;;;18.00;71.20;;;;;;2611766;52;20966;-70
2023/04/02 13:54:48;;;;;;;1.20;0.68;;;18.00;70.90;;;;;;2363465;53;21018;-69
2023/04/02 13:57:16;;;;;;;3.47;0.60;;;18.00;69.80;;;;;;2359114;53;21402;-70
2023/04/02 13:59:42;;;;;;;3.50;1.23;;;18.00;71.30;;;;;;2611627;52;21014;-70
2023/04/02 14:02:15;;;;;;;2.17;0.82;;;18.00;71.30;;;;;;2611158;52;20930;-69
2023/04/02 14:04:43;;;;;;;1.05;0.50;;;18.00;70.90;;;;;;2612343;52;22123;-69
2023/04/02 14:15:13;;;;;;;0.85;0.40;;;18.00;71.00;;;;;;2610700;52;21136;-70
2023/04/02 14:21:17;;;;;;;0.65;0.28;;;18.00;69.70;;;;;;2610139;52;20962;-70
2023/04/02 14:26:22;;;;;;;0.32;0.20;;;18.00;69.40;;;;;;2610423;52;21917;-68
2023/04/02 14:31:52;;;;;;;0.43;0.20;;;17.90;68.60;;;;;;2358373;53;20954;-71
2023/04/02 14:34:38;;;;;;;0.68;0.30;;;17.70;68.90;;;;;;2610525;52;20958;-71
2023/04/02 14:39:14;;;;;;;0.30;0.13;;;17.70;69.10;;;;;;2610993;52;20931;-71
2023/04/02 14:41:57;;;;;;;0.22;0.13;;;17.60;68.90;;;;;;2611718;52;20970;-70